Bloomfield, Connecticut
Current Conditions -  °F | °C
As of 3:51 AM on Friday 19 Dec 2014 (Local Time) from KBDL Reporting Station
Overcast Overcast  
Wind Chill: 27°   Ceiling: 3300
Heat Index: 35°   Visibility: 10mi
Dew Point: 22°   Wind: 12mph
Humidity: 59%   Direction: 310°NW
Pressure: 29.92"   Gusts: NA
Location:  41.83°N, 72.73°W
Report Text: KBDL 190851Z 31010KT 10SM OVC033 02/M06 A2992 RMK AO2 SLP134 T00171056 53002
Loading
Personal Weather Stations






























Interactive Weather Map New forecast layout! Learn more

10-Day Weather Forecast

Advertisements
Track Severe Weather on mobile